Time;durP1;ratioP1;P1;durP2;ratioP2;P2;SDS_P1;SDS_P2;PMS_P1;PMS_P2;Temp;Humidity;BMP_temperature;BMP_pressure;BME280_temperature;BME280_humidity;BME280_pressure;Samples;Min_cycle;Max_cycle;Signal;HPM_P1;HPM_P2
2023/11/23 00:00:20;;;;;;;;;;;;;;;;;;6292985;28;19912;-85
2023/11/23 00:03:20;;;;;;;;;;;;;;;;;;6274819;28;20289;-85
2023/11/23 00:06:20;;;;;;;;;;;;;;;;;;6298840;28;20289;-85
2023/11/23 00:09:20;;;;;;;;;;;;;;;;;;6278280;28;20361;-86
2023/11/23 00:12:20;;;;;;;;;;;;;;;;;;6278066;28;19920;-85
2023/11/23 00:15:21;;;;;;;;;;;;;;;;;;6281510;28;20270;-85
2023/11/23 00:18:22;;;;;;;;;;;;;;;;;;6298312;28;20007;-85
2023/11/23 00:21:22;;;;;;;;;;;;;;;;;;6277838;28;19920;-85
2023/11/23 00:24:22;;;;;;;;;;;;;;;;;;6289531;28;20301;-84
2023/11/23 00:27:22;;;;;;;;;;;;;;;;;;6298244;28;20011;-85
2023/11/23 00:30:24;;;;;;;;;;;;;;;;;;6284816;28;19927;-85
2023/11/23 00:33:24;;;;;;;;;;;;;;;;;;6305350;28;19923;-85
2023/11/23 00:36:24;;;;;;;;;;;;;;;;;;6307682;28;19916;-85
2023/11/23 00:39:24;;;;;;;;;;;;;;;;;;6283673;28;19920;-86
2023/11/23 00:42:24;;;;;;;;;;;;;;;;;;6285744;28;19913;-85
2023/11/23 00:45:24;;;;;;;;;;;;;;;;;;6293169;28;19962;-85
2023/11/23 00:48:24;;;;;;;;;;;;;;;;;;6282668;28;19920;-87
2023/11/23 00:51:26;;;;;;;;;;;;;;;;;;6298785;28;19986;-87
2023/11/23 00:54:27;;;;;;;;;;;;;;;;;;6286088;28;19912;-87
2023/11/23 00:57:27;;;;;;;;;;;;;;;;;;6311957;28;19920;-91
2023/11/23 01:00:28;;;;;;;;;;;;;;;;;;6295267;28;19913;-88
2023/11/23 01:03:29;;;;;;;;;;;;;;;;;;6284746;28;19912;-88
2023/11/23 01:06:29;;;;;;;;;;;;;;;;;;6294908;28;19966;-91
2023/11/23 01:09:29;;;;;;;;;;;;;;;;;;6284018;28;19921;-88
2023/11/23 01:12:29;;;;;;;;;;;;;;;;;;6291281;28;19916;-87
2023/11/23 01:15:29;;;;;;;;;;;;;;;;;;6281046;28;19913;-87
2023/11/23 01:18:30;;;;;;;;;;;;;;;;;;6284856;28;19916;-87
2023/11/23 01:21:30;;;;;;;;;;;;;;;;;;6293136;28;19916;-85
2023/11/23 01:24:32;;;;;;;;;;;;;;;;;;6291983;28;20011;-84
2023/11/23 01:27:32;;;;;;;;;;;;;;;;;;6287375;28;19979;-87
2023/11/23 01:30:32;;;;;;;;;;;;;;;;;;6273386;28;20319;-87
2023/11/23 01:33:32;;;;;;;;;;;;;;;;;;6308840;28;20024;-87
2023/11/23 01:36:32;;;;;;;;;;;;;;;;;;6273184;28;20354;-86
2023/11/23 01:39:33;;;;;;;;;;;;;;;;;;6279470;28;20567;-87
2023/11/23 01:42:33;;;;;;;;;;;;;;;;;;6282243;28;20008;-87
2023/11/23 01:45:33;;;;;;;;;;;;;;;;;;6284455;28;19912;-87
2023/11/23 01:48:33;;;;;;;;;;;;;;;;;;6278981;28;20408;-87
2023/11/23 01:51:33;;;;;;;;;;;;;;;;;;6293412;28;19917;-91
2023/11/23 01:54:33;;;;;;;;;;;;;;;;;;6291864;28;19909;-90
2023/11/23 01:57:33;;;;;;;;;;;;;;;;;;6295301;28;19920;-90
2023/11/23 02:00:33;;;;;;;;;;;;;;;;;;6279476;28;19931;-91
2023/11/23 02:03:34;;;;;;;;;;;;;;;;;;6290282;28;19912;-91
2023/11/23 02:06:34;;;;;;;;;;;;;;;;;;6291176;28;19917;-91
2023/11/23 02:09:34;;;;;;;;;;;;;;;;;;6291449;28;20054;-91
2023/11/23 02:12:34;;;;;;;;;;;;;;;;;;6298453;28;19916;-91
2023/11/23 02:15:35;;;;;;;;;;;;;;;;;;6287445;28;19909;-90
2023/11/23 02:18:35;;;;;;;;;;;;;;;;;;6293829;28;20410;-90
2023/11/23 02:21:35;;;;;;;;;;;;;;;;;;6285561;28;19959;-92
2023/11/23 02:24:36;;;;;;;;;;;;;;;;;;6264829;28;19916;-92
2023/11/23 02:27:36;;;;;;;;;;;;;;;;;;6290958;28;20085;-90
2023/11/23 02:30:36;;;;;;;;;;;;;;;;;;6286877;28;20357;-91
2023/11/23 02:33:36;;;;;;;;;;;;;;;;;;6289714;28;20378;-91
2023/11/23 02:36:37;;;;;;;;;;;;;;;;;;6279252;28;20004;-91
2023/11/23 02:39:39;;;;;;;;;;;;;;;;;;6287964;28;20362;-91
2023/11/23 02:42:39;;;;;;;;;;;;;;;;;;6291723;28;19912;-89
2023/11/23 02:45:41;;;;;;;;;;;;;;;;;;6297771;28;19923;-89
2023/11/23 02:48:41;;;;;;;;;;;;;;;;;;6304397;28;19974;-89
2023/11/23 02:51:41;;;;;;;;;;;;;;;;;;6288109;28;19958;-90
2023/11/23 02:54:42;;;;;;;;;;;;;;;;;;6277919;28;19928;-90
2023/11/23 02:57:42;;;;;;;;;;;;;;;;;;6283266;28;19920;-91
2023/11/23 03:00:43;;;;;;;;;;;;;;;;;;6283663;28;19920;-90
2023/11/23 03:03:43;;;;;;;;;;;;;;;;;;6278476;28;20015;-91
2023/11/23 03:06:43;;;;;;;;;;;;;;;;;;6295633;28;19959;-92
2023/11/23 03:09:43;;;;;;;;;;;;;;;;;;6282332;28;19921;-90
2023/11/23 03:12:43;;;;;;;;;;;;;;;;;;6284182;28;19924;-92
2023/11/23 03:15:43;;;;;;;;;;;;;;;;;;6287725;28;19909;-90
2023/11/23 03:18:44;;;;;;;;;;;;;;;;;;6293075;28;19913;-92
2023/11/23 03:21:45;;;;;;;;;;;;;;;;;;6276458;28;19921;-91
2023/11/23 03:24:48;;;;;;;;;;;;;;;;;;6280535;28;19917;-91
2023/11/23 03:27:48;;;;;;;;;;;;;;;;;;6278896;28;19916;-91
2023/11/23 03:30:49;;;;;;;;;;;;;;;;;;6286396;28;19924;-92
2023/11/23 03:33:49;;;;;;;;;;;;;;;;;;6275723;28;19966;-91
2023/11/23 03:36:49;;;;;;;;;;;;;;;;;;6295094;28;19913;-92
2023/11/23 03:39:49;;;;;;;;;;;;;;;;;;6299086;28;20305;-90
2023/11/23 03:42:49;;;;;;;;;;;;;;;;;;6288117;28;19920;-91
2023/11/23 03:45:50;;;;;;;;;;;;;;;;;;6284573;28;19912;-91
2023/11/23 03:48:50;;;;;;;;;;;;;;;;;;6273428;28;19962;-91
2023/11/23 03:51:50;;;;;;;;;;;;;;;;;;6280917;28;20259;-92
2023/11/23 03:54:50;;;;;;;;;;;;;;;;;;6293884;28;20257;-92
2023/11/23 03:57:50;;;;;;;;;;;;;;;;;;6283611;28;19913;-90
2023/11/23 04:00:51;;;;;;;;;;;;;;;;;;6291724;28;19912;-91
2023/11/23 04:03:51;;;;;;;;;;;;;;;;;;6283619;28;19966;-91
2023/11/23 04:06:51;;;;;;;;;;;;;;;;;;6286558;28;19961;-92
2023/11/23 04:09:51;;;;;;;;;;;;;;;;;;6298178;28;19923;-91
2023/11/23 04:12:51;;;;;;;;;;;;;;;;;;6298758;28;19924;-88
2023/11/23 04:15:51;;;;;;;;;;;;;;;;;;6281241;28;19920;-88
2023/11/23 04:18:51;;;;;;;;;;;;;;;;;;6279249;28;19913;-87
2023/11/23 04:21:51;;;;;;;;;;;;;;;;;;6271016;28;19921;-88
2023/11/23 04:24:51;;;;;;;;;;;;;;;;;;6301372;28;20274;-87
2023/11/23 04:27:52;;;;;;;;;;;;;;;;;;6298532;28;20222;-87
2023/11/23 04:30:53;;;;;;;;;;;;;;;;;;6276617;28;19963;-88
2023/11/23 04:33:53;;;;;;;;;;;;;;;;;;6290295;28;19916;-93
2023/11/23 04:36:53;;;;;;;;;;;;;;;;;;6298491;28;19920;-88
2023/11/23 04:39:53;;;;;;;;;;;;;;;;;;6286017;28;19979;-86
2023/11/23 04:42:54;;;;;;;;;;;;;;;;;;6298650;28;20364;-87
2023/11/23 04:45:54;;;;;;;;;;;;;;;;;;6293654;28;19912;-87
2023/11/23 04:48:54;;;;;;;;;;;;;;;;;;6294235;28;19916;-88
2023/11/23 04:51:54;;;;;;;;;;;;;;;;;;6294095;28;19916;-87
2023/11/23 04:54:54;;;;;;;;;;;;;;;;;;6281324;28;19916;-87
2023/11/23 04:57:54;;;;;;;;;;;;;;;;;;6292220;28;19927;-87
2023/11/23 05:00:55;;;;;;;;;;;;;;;;;;6290057;28;19912;-87
2023/11/23 05:03:55;;;;;;;;;;;;;;;;;;6285087;28;19932;-88
2023/11/23 05:06:55;;;;;;;;;;;;;;;;;;6277967;28;19917;-87
2023/11/23 05:09:56;;;;;;;;;;;;;;;;;;6293659;28;20317;-88
2023/11/23 05:12:56;;;;;;;;;;;;;;;;;;6286185;28;19920;-87
2023/11/23 05:15:56;;;;;;;;;;;;;;;;;;6291785;28;20369;-87
2023/11/23 05:18:56;;;;;;;;;;;;;;;;;;6297871;28;19909;-88
2023/11/23 05:21:57;;;;;;;;;;;;;;;;;;6286224;28;19912;-87
2023/11/23 05:24:57;;;;;;;;;;;;;;;;;;6285446;28;19932;-87
2023/11/23 05:27:57;;;;;;;;;;;;;;;;;;6309593;28;19919;-87
2023/11/23 05:30:57;;;;;;;;;;;;;;;;;;6289080;28;19916;-86
2023/11/23 05:33:57;;;;;;;;;;;;;;;;;;6288477;28;19913;-84
2023/11/23 05:36:57;;;;;;;;;;;;;;;;;;6270362;28;20316;-85
2023/11/23 05:39:58;;;;;;;;;;;;;;;;;;6283871;28;19927;-85
2023/11/23 05:42:58;;;;;;;;;;;;;;;;;;6295451;28;19913;-85
2023/11/23 05:45:58;;;;;;;;;;;;;;;;;;6296882;28;19913;-86
2023/11/23 05:48:59;;;;;;;;;;;;;;;;;;6280508;28;19916;-87
2023/11/23 05:51:59;;;;;;;;;;;;;;;;;;6287416;28;19920;-89
2023/11/23 05:54:59;;;;;;;;;;;;;;;;;;6299794;28;19916;-87
2023/11/23 05:57:59;;;;;;;;;;;;;;;;;;6283934;28;20389;-87
2023/11/23 06:00:59;;;;;;;;;;;;;;;;;;6285311;28;19951;-88
2023/11/23 06:04:00;;;;;;;;;;;;;;;;;;6289589;28;20003;-88
2023/11/23 06:07:00;;;;;;;;;;;;;;;;;;6298663;28;19913;-86
2023/11/23 06:10:01;;;;;;;;;;;;;;;;;;6279535;28;19921;-88
2023/11/23 06:13:01;;;;;;;;;;;;;;;;;;6279700;28;20362;-85
2023/11/23 06:16:01;;;;;;;;;;;;;;;;;;6280490;28;19909;-83
2023/11/23 06:19:01;;;;;;;;;;;;;;;;;;6288567;28;19912;-86
2023/11/23 06:22:01;;;;;;;;;;;;;;;;;;6281067;28;19946;-84
2023/11/23 06:25:02;;;;;;;;;;;;;;;;;;6278845;28;20354;-84
2023/11/23 06:28:02;;;;;;;;;;;;;;;;;;6286688;28;19931;-86
2023/11/23 06:31:02;;;;;;;;;;;;;;;;;;6289966;28;19920;-85
2023/11/23 06:34:02;;;;;;;;;;;;;;;;;;6284719;28;19925;-83
2023/11/23 06:37:02;;;;;;;;;;;;;;;;;;6275278;28;19917;-88
2023/11/23 06:40:03;;;;;;;;;;;;;;;;;;6276945;28;19999;-86
2023/11/23 06:43:03;;;;;;;;;;;;;;;;;;6289672;28;19912;-87
2023/11/23 06:46:03;;;;;;;;;;;;;;;;;;6289327;28;19959;-82
2023/11/23 06:49:03;;;;;;;;;;;;;;;;;;6281769;28;19920;-84
2023/11/23 06:52:03;;;;;;;;;;;;;;;;;;6277953;28;19921;-86
2023/11/23 06:55:05;;;;;;;;;;;;;;;;;;6284823;28;20399;-84
2023/11/23 06:58:05;;;;;;;;;;;;;;;;;;6287121;28;20289;-85
2023/11/23 07:01:05;;;;;;;;;;;;;;;;;;6281530;28;19919;-84
2023/11/23 07:04:07;;;;;;;;;;;;;;;;;;6286940;28;20389;-85
2023/11/23 07:07:07;;;;;;;;;;;;;;;;;;6272404;28;19978;-85
2023/11/23 07:10:07;;;;;;;;;;;;;;;;;;6286786;28;19917;-85
2023/11/23 07:13:07;;;;;;;;;;;;;;;;;;6280763;28;19916;-85
2023/11/23 07:16:09;;;;;;;;;;;;;;;;;;6289453;28;19913;-85
2023/11/23 07:19:09;;;;;;;;;;;;;;;;;;6275939;28;19916;-85
2023/11/23 07:22:10;;;;;;;;;;;;;;;;;;6277192;28;19959;-85
2023/11/23 07:25:10;;;;;;;;;;;;;;;;;;6287242;28;19924;-85
2023/11/23 07:28:11;;;;;;;;;;;;;;;;;;6283794;28;19958;-85
2023/11/23 07:31:11;;;;;;;;;;;;;;;;;;6292796;28;19916;-85
2023/11/23 07:34:12;;;;;;;;;;;;;;;;;;6289071;28;19913;-85
2023/11/23 07:37:12;;;;;;;;;;;;;;;;;;6292374;28;19913;-85
2023/11/23 07:40:12;;;;;;;;;;;;;;;;;;6308699;28;20170;-92
2023/11/23 07:43:12;;;;;;;;;;;;;;;;;;6290354;28;20365;-91
2023/11/23 07:46:12;;;;;;;;;;;;;;;;;;6280482;28;19959;-91
2023/11/23 07:49:12;;;;;;;;;;;;;;;;;;6287735;28;20343;-93
2023/11/23 07:52:13;;;;;;;;;;;;;;;;;;6306805;28;19970;-91
2023/11/23 07:55:15;;;;;;;;;;;;;;;;;;6286995;28;19927;-91
2023/11/23 07:58:15;;;;;;;;;;;;;;;;;;6290829;28;19913;-92
2023/11/23 08:01:16;;;;;;;;;;;;;;;;;;6285778;28;19913;-92
2023/11/23 08:04:16;;;;;;;;;;;;;;;;;;6292040;28;19920;-91
2023/11/23 08:07:17;;;;;;;;;;;;;;;;;;6288511;28;19920;-92
2023/11/23 08:10:17;;;;;;;;;;;;;;;;;;6287749;28;19963;-92
2023/11/23 08:13:20;;;;;;;;;;;;;;;;;;6300209;28;20003;-92
2023/11/23 08:16:20;;;;;;;;;;;;;;;;;;6292456;28;19909;-92
2023/11/23 08:19:22;;;;;;;;;;;;;;;;;;6293194;28;19935;-92
2023/11/23 08:22:22;;;;;;;;;;;;;;;;;;6289162;28;19970;-92
2023/11/23 08:25:22;;;;;;;;;;;;;;;;;;6303954;28;20375;-91
2023/11/23 08:28:22;;;;;;;;;;;;;;;;;;6323587;28;19969;-92
2023/11/23 08:31:28;;;;;;;;;;;;;;;;;;6276508;28;19917;-92
2023/11/23 08:34:28;;;;;;;;;;;;;;;;;;6313650;28;19916;-83
2023/11/23 08:37:28;;;;;;;;;;;;;;;;;;6286918;28;20313;-84
2023/11/23 08:40:28;;;;;;;;;;;;;;;;;;6276810;28;20370;-84
2023/11/23 08:43:29;;;;;;;;;;;;;;;;;;6291151;28;19912;-84
2023/11/23 08:46:29;;;;;;;;;;;;;;;;;;6277115;28;19921;-84
2023/11/23 08:49:31;;;;;;;;;;;;;;;;;;6284960;28;20336;-85
2023/11/23 08:52:31;;;;;;;;;;;;;;;;;;6285233;28;20003;-82
2023/11/23 08:55:31;;;;;;;;;;;;;;;;;;6284120;28;20392;-83
2023/11/23 08:58:31;;;;;;;;;;;;;;;;;;6314057;28;20353;-82
2023/11/23 09:01:33;;;;;;;;;;;;;;;;;;6281988;28;20255;-82
2023/11/23 09:04:39;;;;;;;;;;;;;;;;;;6291200;28;19923;-82
2023/11/23 09:07:39;;;;;;;;;;;;;;;;;;6296938;28;20288;-82
2023/11/23 09:10:40;;;;;;;;;;;;;;;;;;6279598;28;20369;-83
2023/11/23 09:13:40;;;;;;;;;;;;;;;;;;6287475;28;20010;-82
2023/11/23 09:16:41;;;;;;;;;;;;;;;;;;6299615;28;20344;-82
2023/11/23 09:19:41;;;;;;;;;;;;;;;;;;6288924;28;19966;-84
2023/11/23 09:22:41;;;;;;;;;;;;;;;;;;6306184;28;20424;-84
2023/11/23 09:25:42;;;;;;;;;;;;;;;;;;6274762;28;19920;-83
2023/11/23 09:28:43;;;;;;;;;;;;;;;;;;6275059;28;20059;-83
2023/11/23 09:31:43;;;;;;;;;;;;;;;;;;6299354;28;20268;-84
2023/11/23 09:34:44;;;;;;;;;;;;;;;;;;6282067;28;19919;-84
2023/11/23 09:37:44;;;;;;;;;;;;;;;;;;6297593;28;19908;-84
2023/11/23 09:40:44;;;;;;;;;;;;;;;;;;6287394;28;19920;-84
2023/11/23 09:43:45;;;;;;;;;;;;;;;;;;6279979;28;19916;-84
2023/11/23 09:46:45;;;;;;;;;;;;;;;;;;6288392;28;19912;-84
2023/11/23 09:49:46;;;;;;;;;;;;;;;;;;6290939;28;20427;-85
2023/11/23 09:52:46;;;;;;;;;;;;;;;;;;6274325;28;20377;-85
2023/11/23 09:55:46;;;;;;;;;;;;;;;;;;6274477;28;20004;-84
2023/11/23 09:58:46;;;;;;;;;;;;;;;;;;6275206;28;19999;-85
2023/11/23 10:01:48;;;;;;;;;;;;;;;;;;6293554;28;20054;-84
2023/11/23 10:04:48;;;;;;;;;;;;;;;;;;6285273;28;19969;-84
2023/11/23 10:07:49;;;;;;;;;;;;;;;;;;6297940;28;19920;-84
2023/11/23 10:10:51;;;;;;;;;;;;;;;;;;6299412;28;19916;-85
2023/11/23 10:13:51;;;;;;;;;;;;;;;;;;6275137;28;19927;-86
2023/11/23 10:16:51;;;;;;;;;;;;;;;;;;6294185;28;19920;-87
2023/11/23 10:19:51;;;;;;;;;;;;;;;;;;6290036;28;20282;-87
2023/11/23 10:22:52;;;;;;;;;;;;;;;;;;6276170;28;20369;-87
2023/11/23 10:25:54;;;;;;;;;;;;;;;;;;6301318;28;20285;-86
2023/11/23 10:28:54;;;;;;;;;;;;;;;;;;6298761;28;19916;-86
2023/11/23 10:31:55;;;;;;;;;;;;;;;;;;6283951;28;19962;-87
2023/11/23 10:34:56;;;;;;;;;;;;;;;;;;6296536;28;19920;-83
2023/11/23 10:37:56;;;;;;;;;;;;;;;;;;6287912;28;19919;-83
2023/11/23 10:40:56;;;;;;;;;;;;;;;;;;6290410;28;19921;-86
2023/11/23 10:43:57;;;;;;;;;;;;;;;;;;6276848;28;19920;-85
2023/11/23 10:47:03;;;;;;;;;;;;;;;;;;6280748;28;19940;-83
2023/11/23 10:50:05;;;;;;;;;;;;;;;;;;6290378;28;20018;-84
2023/11/23 10:53:05;;;;;;;;;;;;;;;;;;6293401;28;19917;-84
2023/11/23 10:56:05;;;;;;;;;;;;;;;;;;6287701;28;20057;-83
2023/11/23 10:59:05;;;;;;;;;;;;;;;;;;6288548;28;19909;-85
2023/11/23 11:02:07;;;;;;;;;;;;;;;;;;6288880;28;20332;-83
2023/11/23 11:05:07;;;;;;;;;;;;;;;;;;6281264;28;19939;-83
2023/11/23 11:08:07;;;;;;;;;;;;;;;;;;6296073;28;19916;-83
2023/11/23 11:11:07;;;;;;;;;;;;;;;;;;6274494;28;20369;-85
2023/11/23 11:14:08;;;;;;;;;;;;;;;;;;6284255;28;20473;-85
2023/11/23 11:17:08;;;;;;;;;;;;;;;;;;6297510;28;20015;-85
2023/11/23 11:20:10;;;;;;;;;;;;;;;;;;6283684;28;19912;-85
2023/11/23 11:23:10;;;;;;;;;;;;;;;;;;6271976;28;19913;-85
2023/11/23 11:26:10;;;;;;;;;;;;;;;;;;6272805;28;19952;-85
2023/11/23 11:29:10;;;;;;;;;;;;;;;;;;6282213;28;19986;-84
2023/11/23 11:32:11;;;;;;;;;;;;;;;;;;6277709;28;19921;-84
2023/11/23 11:35:11;;;;;;;;;;;;;;;;;;6271472;28;20388;-85
2023/11/23 11:38:11;;;;;;;;;;;;;;;;;;6291065;28;19918;-84
2023/11/23 11:41:11;;;;;;;;;;;;;;;;;;6296060;28;19921;-85
2023/11/23 11:44:13;;;;;;;;;;;;;;;;;;6291586;28;19915;-85
2023/11/23 11:47:13;;;;;;;;;;;;;;;;;;6296329;28;19917;-85
2023/11/23 11:50:13;;;;;;;;;;;;;;;;;;6280509;28;20278;-85
2023/11/23 11:53:13;;;;;;;;;;;;;;;;;;6287331;28;19913;-85
2023/11/23 11:56:13;;;;;;;;;;;;;;;;;;6272183;28;20281;-85
2023/11/23 11:59:14;;;;;;;;;;;;;;;;;;6272251;28;19913;-85
2023/11/23 12:02:16;;;;;;;;;;;;;;;;;;6275752;28;20276;-85
2023/11/23 12:05:16;;;;;;;;;;;;;;;;;;6273650;28;19909;-85
2023/11/23 12:08:16;;;;;;;;;;;;;;;;;;6275278;28;19916;-85
2023/11/23 12:11:16;;;;;;;;;;;;;;;;;;6300139;28;19931;-85
2023/11/23 12:14:16;;;;;;;;;;;;;;;;;;6301234;28;19908;-85
2023/11/23 12:17:16;;;;;;;;;;;;;;;;;;6300075;28;19916;-85
2023/11/23 12:20:17;;;;;;;;;;;;;;;;;;6297490;28;19919;-85
2023/11/23 12:23:17;;;;;;;;;;;;;;;;;;6298997;28;19935;-85
2023/11/23 12:26:17;;;;;;;;;;;;;;;;;;6301015;28;20353;-85
2023/11/23 12:29:18;;;;;;;;;;;;;;;;;;6291916;28;19962;-84
2023/11/23 12:32:18;;;;;;;;;;;;;;;;;;6299786;28;19912;-84
2023/11/23 12:35:18;;;;;;;;;;;;;;;;;;6295467;28;20365;-85
2023/11/23 12:38:18;;;;;;;;;;;;;;;;;;6315058;28;19970;-84
2023/11/23 12:41:20;;;;;;;;;;;;;;;;;;6300715;28;20404;-84
2023/11/23 12:44:20;;;;;;;;;;;;;;;;;;6316568;28;19908;-84
2023/11/23 12:47:20;;;;;;;;;;;;;;;;;;6300463;28;19916;-84
2023/11/23 12:50:24;;;;;;;;;;;;;;;;;;6315472;28;19962;-84
2023/11/23 12:53:25;;;;;;;;;;;;;;;;;;6296360;28;19912;-84
2023/11/23 12:56:26;;;;;;;;;;;;;;;;;;6300525;28;19909;-84
2023/11/23 12:59:26;;;;;;;;;;;;;;;;;;6294044;28;19943;-84
2023/11/23 13:02:26;;;;;;;;;;;;;;;;;;6283790;28;20297;-81
2023/11/23 13:05:26;;;;;;;;;;;;;;;;;;6290531;28;19917;-78
2023/11/23 13:08:26;;;;;;;;;;;;;;;;;;6278120;28;19916;-77
2023/11/23 13:11:26;;;;;;;;;;;;;;;;;;6292546;28;19916;-85
2023/11/23 13:14:26;;;;;;;;;;;;;;;;;;6273169;28;19917;-82
2023/11/23 13:17:27;;;;;;;;;;;;;;;;;;6278506;28;20051;-81
2023/11/23 13:20:27;;;;;;;;;;;;;;;;;;6283290;28;20292;-81
2023/11/23 13:23:27;;;;;;;;;;;;;;;;;;6290296;28;19939;-81
2023/11/23 13:26:28;;;;;;;;;;;;;;;;;;6274397;28;20377;-81
2023/11/23 13:29:28;;;;;;;;;;;;;;;;;;6278074;28;19917;-80
2023/11/23 13:32:28;;;;;;;;;;;;;;;;;;6294947;28;19917;-82
2023/11/23 13:35:31;;;;;;;;;;;;;;;;;;6297405;28;19958;-81
2023/11/23 13:38:32;;;;;;;;;;;;;;;;;;6296490;28;20006;-82
2023/11/23 13:41:32;;;;;;;;;;;;;;;;;;6284326;28;19925;-81
2023/11/23 13:44:32;;;;;;;;;;;;;;;;;;6293998;28;20339;-83
2023/11/23 13:47:32;;;;;;;;;;;;;;;;;;6295452;28;20338;-82
2023/11/23 13:50:32;;;;;;;;;;;;;;;;;;6294606;28;20415;-81
2023/11/23 13:53:32;;;;;;;;;;;;;;;;;;6294761;28;20365;-82
2023/11/23 13:56:32;;;;;;;;;;;;;;;;;;6303716;28;19912;-82
2023/11/23 13:59:33;;;;;;;;;;;;;;;;;;6296032;28;19919;-83
2023/11/23 14:02:36;;;;;;;;;;;;;;;;;;6282702;28;19917;-82
2023/11/23 14:05:36;;;;;;;;;;;;;;;;;;6285379;28;20003;-83
2023/11/23 14:08:36;;;;;;;;;;;;;;;;;;6291909;28;19920;-83
2023/11/23 14:11:36;;;;;;;;;;;;;;;;;;6279564;28;20396;-83
2023/11/23 14:14:36;;;;;;;;;;;;;;;;;;6287885;28;20372;-83
2023/11/23 14:17:37;;;;;;;;;;;;;;;;;;6290181;28;19966;-84
2023/11/23 14:20:37;;;;;;;;;;;;;;;;;;6270545;28;19909;-84
2023/11/23 14:23:37;;;;;;;;;;;;;;;;;;6285911;28;20367;-83
2023/11/23 14:26:37;;;;;;;;;;;;;;;;;;6276816;28;19924;-84
2023/11/23 14:29:38;;;;;;;;;;;;;;;;;;6279343;28;20009;-83
2023/11/23 14:32:38;;;;;;;;;;;;;;;;;;6273035;28;19924;-82
2023/11/23 14:35:38;;;;;;;;;;;;;;;;;;6272213;28;19913;-82
2023/11/23 14:38:38;;;;;;;;;;;;;;;;;;6285644;28;19912;-82
2023/11/23 14:41:38;;;;;;;;;;;;;;;;;;6283465;28;20453;-84
2023/11/23 14:44:38;;;;;;;;;;;;;;;;;;6248630;28;19913;-83
2023/11/23 14:47:38;;;;;;;;;;;;;;;;;;6249013;28;19920;-86
2023/11/23 14:50:41;;;;;;;;;;;;;;;;;;6260829;28;20441;-85
2023/11/23 14:53:43;;;;;;;;;;;;;;;;;;6276222;28;19913;-83
2023/11/23 14:56:49;;;;;;;;;;;;;;;;;;6272662;28;19913;-83
2023/11/23 14:59:50;;;;;;;;;;;;;;;;;;6255789;28;19913;-84
2023/11/23 15:02:50;;;;;;;;;;;;;;;;;;6296260;28;19920;-84
2023/11/23 15:05:52;;;;;;;;;;;;;;;;;;6302681;28;20388;-84
2023/11/23 15:08:53;;;;;;;;;;;;;;;;;;6286379;28;19913;-84
2023/11/23 15:11:53;;;;;;;;;;;;;;;;;;6252509;28;19928;-83
2023/11/23 15:14:56;;;;;;;;;;;;;;;;;;6263955;28;19917;-86
2023/11/23 15:17:56;;;;;;;;;;;;;;;;;;6254685;28;19913;-86
2023/11/23 15:20:59;;;;;;;;;;;;;;;;;;6261441;28;19964;-86
2023/11/23 15:24:00;;;;;;;;;;;;;;;;;;6257783;28;19920;-86
2023/11/23 15:27:00;;;;;;;;;;;;;;;;;;6264893;28;19921;-87
2023/11/23 15:30:00;;;;;;;;;;;;;;;;;;6276642;28;19979;-87
2023/11/23 15:33:02;;;;;;;;;;;;;;;;;;6249241;28;19913;-87
2023/11/23 15:36:05;;;;;;;;;;;;;;;;;;6259050;28;19916;-87
2023/11/23 15:39:06;;;;;;;;;;;;;;;;;;6287099;28;19913;-85
2023/11/23 15:42:10;;;;;;;;;;;;;;;;;;6307745;28;19956;-85
2023/11/23 15:45:10;;;;;;;;;;;;;;;;;;6299556;28;19919;-85
2023/11/23 15:48:11;;;;;;;;;;;;;;;;;;6310121;28;20273;-85
2023/11/23 15:51:11;;;;;;;;;;;;;;;;;;6326332;28;19912;-84
2023/11/23 15:54:12;;;;;;;;;;;;;;;;;;6305516;28;19999;-83
2023/11/23 15:57:12;;;;;;;;;;;;;;;;;;6277801;28;20264;-86
2023/11/23 16:00:12;;;;;;;;;;;;;;;;;;6287459;28;19919;-86
2023/11/23 16:03:12;;;;;;;;;;;;;;;;;;6302489;28;19920;-86
2023/11/23 16:06:13;;;;;;;;;;;;;;;;;;6292793;28;19916;-86
2023/11/23 16:09:15;;;;;;;;;;;;;;;;;;6298267;28;20301;-86
2023/11/23 16:12:15;;;;;;;;;;;;;;;;;;6299283;28;20266;-88
2023/11/23 16:15:16;;;;;;;;;;;;;;;;;;6293993;28;19909;-86
2023/11/23 16:18:16;;;;;;;;;;;;;;;;;;6291577;28;19928;-88
2023/11/23 16:21:18;;;;;;;;;;;;;;;;;;6291636;28;19921;-87
2023/11/23 16:24:18;;;;;;;;;;;;;;;;;;6300372;28;19940;-88
2023/11/23 16:27:18;;;;;;;;;;;;;;;;;;6281767;28;20369;-86
2023/11/23 16:30:18;;;;;;;;;;;;;;;;;;6277112;28;19960;-87
2023/11/23 16:33:19;;;;;;;;;;;;;;;;;;6294645;28;19924;-87
2023/11/23 16:36:19;;;;;;;;;;;;;;;;;;6299291;28;19934;-88
2023/11/23 16:39:20;;;;;;;;;;;;;;;;;;6296803;28;19987;-87
2023/11/23 16:42:20;;;;;;;;;;;;;;;;;;6299390;28;20266;-86
2023/11/23 16:45:20;;;;;;;;;;;;;;;;;;6299899;28;19915;-86
2023/11/23 16:48:21;;;;;;;;;;;;;;;;;;6298615;28;19922;-86
2023/11/23 16:51:22;;;;;;;;;;;;;;;;;;6297597;28;19920;-86
2023/11/23 16:54:23;;;;;;;;;;;;;;;;;;6294479;28;19923;-86
2023/11/23 16:57:23;;;;;;;;;;;;;;;;;;6296925;28;19917;-87
2023/11/23 17:00:23;;;;;;;;;;;;;;;;;;6297149;28;20003;-88
2023/11/23 17:03:24;;;;;;;;;;;;;;;;;;6299367;28;19919;-88
2023/11/23 17:06:24;;;;;;;;;;;;;;;;;;6324957;28;19912;-87
2023/11/23 17:09:24;;;;;;;;;;;;;;;;;;6284545;28;19916;-88
2023/11/23 17:12:25;;;;;;;;;;;;;;;;;;6303151;28;19920;-87
2023/11/23 17:15:26;;;;;;;;;;;;;;;;;;6303278;28;19913;-88
2023/11/23 17:18:26;;;;;;;;;;;;;;;;;;6308501;28;19959;-88
2023/11/23 17:21:26;;;;;;;;;;;;;;;;;;6294834;28;19919;-88
2023/11/23 17:24:26;;;;;;;;;;;;;;;;;;6301450;28;20005;-88
2023/11/23 17:27:26;;;;;;;;;;;;;;;;;;6280658;28;19909;-87
2023/11/23 17:30:27;;;;;;;;;;;;;;;;;;6298280;28;19916;-87
2023/11/23 17:33:28;;;;;;;;;;;;;;;;;;6276111;28;19913;-88
2023/11/23 17:36:28;;;;;;;;;;;;;;;;;;6275666;28;20345;-87
2023/11/23 17:39:29;;;;;;;;;;;;;;;;;;6324693;28;19928;-86
2023/11/23 17:42:30;;;;;;;;;;;;;;;;;;6313195;28;19916;-87
2023/11/23 17:45:30;;;;;;;;;;;;;;;;;;6299688;28;19955;-87
2023/11/23 17:48:30;;;;;;;;;;;;;;;;;;6290013;28;20000;-87
2023/11/23 17:51:30;;;;;;;;;;;;;;;;;;6274133;28;20016;-87
2023/11/23 17:54:30;;;;;;;;;;;;;;;;;;6289177;28;20078;-85
2023/11/23 17:57:32;;;;;;;;;;;;;;;;;;6299500;28;19953;-85
2023/11/23 18:00:32;;;;;;;;;;;;;;;;;;6298017;28;20430;-85
2023/11/23 18:03:33;;;;;;;;;;;;;;;;;;6298819;28;19924;-85
2023/11/23 18:06:33;;;;;;;;;;;;;;;;;;6312127;28;19935;-85
2023/11/23 18:09:34;;;;;;;;;;;;;;;;;;6281198;28;20441;-84
2023/11/23 18:12:34;;;;;;;;;;;;;;;;;;6274998;28;20270;-82
2023/11/23 18:15:34;;;;;;;;;;;;;;;;;;6290691;28;20011;-83
2023/11/23 18:18:35;;;;;;;;;;;;;;;;;;6278366;28;19913;-82
2023/11/23 18:21:35;;;;;;;;;;;;;;;;;;6280124;28;19913;-90
2023/11/23 18:24:35;;;;;;;;;;;;;;;;;;6279040;28;19923;-91
2023/11/23 18:27:36;;;;;;;;;;;;;;;;;;6284338;28;19912;-86
2023/11/23 18:30:36;;;;;;;;;;;;;;;;;;6277490;28;19919;-85
2023/11/23 18:33:36;;;;;;;;;;;;;;;;;;6273640;28;19912;-81
2023/11/23 18:36:36;;;;;;;;;;;;;;;;;;6279611;28;19913;-82
2023/11/23 18:39:37;;;;;;;;;;;;;;;;;;6284985;28;19960;-84
2023/11/23 18:42:37;;;;;;;;;;;;;;;;;;6276279;28;19920;-82
2023/11/23 18:45:40;;;;;;;;;;;;;;;;;;6279858;28;20024;-86
2023/11/23 18:48:40;;;;;;;;;;;;;;;;;;6294830;28;19917;-86
2023/11/23 18:51:40;;;;;;;;;;;;;;;;;;6272128;28;19992;-85
2023/11/23 18:54:41;;;;;;;;;;;;;;;;;;6280696;28;19913;-89
2023/11/23 18:57:41;;;;;;;;;;;;;;;;;;6278141;28;20258;-88
2023/11/23 19:00:41;;;;;;;;;;;;;;;;;;6294208;28;20002;-87
2023/11/23 19:03:42;;;;;;;;;;;;;;;;;;6278106;28;19927;-90
2023/11/23 19:06:43;;;;;;;;;;;;;;;;;;6290941;28;19944;-89
2023/11/23 19:09:43;;;;;;;;;;;;;;;;;;6266445;28;19942;-89
2023/11/23 19:12:44;;;;;;;;;;;;;;;;;;5922887;28;9999840;-89
2023/11/23 19:15:45;;;;;;;;;;;;;;;;;;6282088;28;19921;-89
2023/11/23 19:18:48;;;;;;;;;;;;;;;;;;6272544;28;20372;-88
2023/11/23 19:21:48;;;;;;;;;;;;;;;;;;6278249;28;20016;-87
2023/11/23 19:24:51;;;;;;;;;;;;;;;;;;6276380;28;20290;-88
2023/11/23 19:27:51;;;;;;;;;;;;;;;;;;6271217;28;19920;-89
2023/11/23 19:30:52;;;;;;;;;;;;;;;;;;6279724;28;19917;-88
2023/11/23 19:33:52;;;;;;;;;;;;;;;;;;6276863;28;19924;-90
2023/11/23 19:36:54;;;;;;;;;;;;;;;;;;5930332;28;10000573;-91
2023/11/23 19:39:54;;;;;;;;;;;;;;;;;;6280358;28;19929;-89
2023/11/23 19:42:55;;;;;;;;;;;;;;;;;;6291469;28;19924;-91
2023/11/23 19:45:56;;;;;;;;;;;;;;;;;;6287364;28;19954;-88
2023/11/23 19:48:56;;;;;;;;;;;;;;;;;;6291270;28;19917;-88
2023/11/23 19:51:58;;;;;;;;;;;;;;;;;;6295456;28;19974;-89
2023/11/23 19:54:59;;;;;;;;;;;;;;;;;;6280848;28;20377;-88
2023/11/23 19:58:00;;;;;;;;;;;;;;;;;;6285190;28;19913;-88
2023/11/23 20:01:00;;;;;;;;;;;;;;;;;;6280816;28;19935;-89
2023/11/23 20:04:00;;;;;;;;;;;;;;;;;;6277779;28;19917;-90
2023/11/23 20:07:03;;;;;;;;;;;;;;;;;;6270414;28;19967;-90
2023/11/23 20:10:06;;;;;;;;;;;;;;;;;;6280717;28;20035;-89
2023/11/23 20:13:06;;;;;;;;;;;;;;;;;;6276538;28;19924;-89
2023/11/23 20:16:06;;;;;;;;;;;;;;;;;;6276309;28;19913;-89
2023/11/23 20:19:08;;;;;;;;;;;;;;;;;;6276406;28;20024;-89
2023/11/23 20:22:08;;;;;;;;;;;;;;;;;;6278963;28;19912;-89
2023/11/23 20:25:08;;;;;;;;;;;;;;;;;;6277535;28;19923;-90
2023/11/23 20:28:12;;;;;;;;;;;;;;;;;;6276512;28;19969;-89
2023/11/23 20:31:12;;;;;;;;;;;;;;;;;;6284362;28;19917;-88